createdAt,value
2023-03-04T00:00:33.528Z,4.87
2023-03-04T00:03:01.441Z,4.86
2023-03-04T00:05:31.098Z,4.89
2023-03-04T00:08:01.496Z,4.88
2023-03-04T00:10:29.149Z,4.84
2023-03-04T00:12:56.806Z,4.89
2023-03-04T00:15:24.415Z,4.94
2023-03-04T00:17:52.126Z,4.95
2023-03-04T00:20:20.036Z,4.92
2023-03-04T00:22:48.132Z,4.92
2023-03-04T00:25:17.469Z,4.88
2023-03-04T00:27:45.152Z,4.83
2023-03-04T00:30:13.215Z,4.89
2023-03-04T00:32:40.947Z,4.94
2023-03-04T00:35:09.401Z,4.96
2023-03-04T00:37:37.219Z,4.94
2023-03-04T00:40:06.030Z,4.96
2023-03-04T00:42:37.365Z,4.97
2023-03-04T00:45:07.820Z,4.95
2023-03-04T00:47:35.525Z,4.99
2023-03-04T00:50:03.281Z,5.05
2023-03-04T00:52:30.984Z,5.05
2023-03-04T00:54:58.648Z,5.00
2023-03-04T00:57:26.267Z,4.98
2023-03-04T00:59:55.268Z,4.94
2023-03-04T01:02:24.408Z,4.93
2023-03-04T01:04:52.249Z,4.96
2023-03-04T01:07:19.920Z,4.97
2023-03-04T01:09:47.676Z,5.04
2023-03-04T01:12:15.439Z,4.99
2023-03-04T01:14:43.128Z,4.92
2023-03-04T01:17:12.775Z,4.95
2023-03-04T01:19:40.389Z,4.95
2023-03-04T01:22:08.023Z,4.93
2023-03-04T01:24:36.624Z,4.96
2023-03-04T01:27:04.497Z,4.97
2023-03-04T01:29:32.401Z,4.97
2023-03-04T01:32:00.315Z,5.00
2023-03-04T01:34:29.496Z,5.03
2023-03-04T01:36:57.248Z,5.01
2023-03-04T01:39:25.038Z,4.95
2023-03-04T01:41:52.970Z,4.95
2023-03-04T01:44:20.937Z,4.86
2023-03-04T01:46:50.900Z,4.79
2023-03-04T01:49:20.530Z,4.80
2023-03-04T01:51:52.344Z,4.77
2023-03-04T01:54:22.009Z,4.86
2023-03-04T01:56:51.834Z,4.90
2023-03-04T01:59:21.607Z,4.99
2023-03-04T02:01:51.343Z,4.99
2023-03-04T02:04:22.131Z,4.90
2023-03-04T02:06:52.277Z,4.95
2023-03-04T02:09:20.547Z,5.00
2023-03-04T02:11:49.222Z,5.02
2023-03-04T02:14:17.782Z,5.04
2023-03-04T02:16:45.750Z,5.08
2023-03-04T02:19:20.479Z,5.09
2023-03-04T02:21:48.180Z,5.07
2023-03-04T02:24:27.809Z,5.07
2023-03-04T02:26:56.927Z,5.01
2023-03-04T02:29:24.596Z,5.08
2023-03-04T02:31:54.579Z,5.03
2023-03-04T02:34:26.619Z,5.00
2023-03-04T02:36:57.574Z,5.08
2023-03-04T02:39:32.119Z,5.14
2023-03-04T02:42:02.119Z,5.13
2023-03-04T02:44:31.678Z,5.17
2023-03-04T02:47:00.100Z,5.20
2023-03-04T02:49:30.458Z,5.18
2023-03-04T02:52:01.990Z,5.20
2023-03-04T02:54:30.624Z,5.26
2023-03-04T02:57:06.100Z,5.30
2023-03-04T02:59:33.756Z,5.29
2023-03-04T03:02:01.501Z,5.24
2023-03-04T03:04:29.503Z,5.21
2023-03-04T03:06:57.174Z,5.15
2023-03-04T03:09:24.921Z,5.18
2023-03-04T03:11:52.581Z,5.17
2023-03-04T03:14:21.829Z,5.21
2023-03-04T03:16:49.473Z,5.16
2023-03-04T03:19:17.098Z,5.16
2023-03-04T03:21:45.083Z,5.17
2023-03-04T03:24:12.672Z,5.18
2023-03-04T03:26:40.935Z,5.20
2023-03-04T03:29:08.678Z,5.20
2023-03-04T03:31:37.701Z,5.18
2023-03-04T03:34:05.574Z,5.21
2023-03-04T03:36:33.196Z,5.24
2023-03-04T03:39:00.815Z,5.26
2023-03-04T03:41:28.662Z,5.29
2023-03-04T03:43:56.915Z,5.24
2023-03-04T03:46:24.599Z,5.27
2023-03-04T03:48:53.666Z,5.32
2023-03-04T03:51:22.346Z,5.31
2023-03-04T03:53:50.107Z,5.32
2023-03-04T03:56:17.706Z,5.36
2023-03-04T03:58:45.403Z,5.35
2023-03-04T04:01:13.051Z,5.36
2023-03-04T04:03:41.186Z,5.36
2023-03-04T04:06:10.172Z,5.40
2023-03-04T04:08:37.809Z,5.41
2023-03-04T04:11:05.995Z,5.40
2023-03-04T04:13:33.716Z,5.43
2023-03-04T04:16:01.629Z,5.43
2023-03-04T04:18:29.446Z,5.42
2023-03-04T04:20:57.104Z,5.45
2023-03-04T04:23:26.183Z,5.35
2023-03-04T04:25:55.647Z,5.37
2023-03-04T04:28:23.461Z,5.36
2023-03-04T04:30:51.301Z,5.25
2023-03-04T04:33:18.907Z,5.26
2023-03-04T04:35:46.581Z,5.21
2023-03-04T04:38:14.459Z,5.13
2023-03-04T04:40:43.464Z,5.12
2023-03-04T04:43:11.341Z,5.11
2023-03-04T04:45:39.147Z,5.03
2023-03-04T04:48:07.284Z,4.97
2023-03-04T04:50:34.904Z,4.91
2023-03-04T04:53:02.588Z,4.87
2023-03-04T04:55:30.310Z,4.96
2023-03-04T04:57:59.282Z,4.92
2023-03-04T05:00:27.433Z,4.82
2023-03-04T05:02:55.008Z,4.84
2023-03-04T05:05:22.980Z,4.89
2023-03-04T05:07:50.705Z,4.90
2023-03-04T05:10:18.500Z,4.89
2023-03-04T05:12:46.178Z,4.88
2023-03-04T05:15:15.242Z,4.91
2023-03-04T05:17:43.224Z,4.88
2023-03-04T05:20:11.954Z,4.89
2023-03-04T05:22:39.676Z,4.82
2023-03-04T05:25:07.941Z,4.86
2023-03-04T05:27:35.607Z,4.77
2023-03-04T05:30:03.362Z,4.75
2023-03-04T05:32:32.480Z,4.74
2023-03-04T05:35:00.165Z,4.84
2023-03-04T05:37:27.861Z,4.75
2023-03-04T05:39:55.477Z,4.78
2023-03-04T05:42:23.995Z,4.77
2023-03-04T05:44:51.639Z,4.78
2023-03-04T05:47:19.446Z,4.81
2023-03-04T05:49:48.629Z,4.86
2023-03-04T05:52:16.325Z,4.88
2023-03-04T05:54:43.970Z,4.78
2023-03-04T05:57:11.592Z,4.78
2023-03-04T05:59:39.276Z,4.82
2023-03-04T06:02:07.015Z,4.88
2023-03-04T06:04:34.940Z,4.94
2023-03-04T06:07:03.920Z,4.80
2023-03-04T06:09:31.657Z,4.70
2023-03-04T06:11:59.343Z,4.65
2023-03-04T06:14:27.115Z,4.73
2023-03-04T06:16:54.926Z,4.78
2023-03-04T06:19:22.907Z,4.84
2023-03-04T06:21:50.707Z,4.79
2023-03-04T06:24:19.975Z,4.80
2023-03-04T06:26:47.612Z,4.77
2023-03-04T06:29:15.424Z,4.72
2023-03-04T06:31:43.137Z,4.70
2023-03-04T06:34:10.833Z,4.72
2023-03-04T06:36:38.612Z,4.70
2023-03-04T06:39:06.549Z,4.72
2023-03-04T06:41:36.127Z,4.71
2023-03-04T06:44:04.021Z,4.77
2023-03-04T06:46:31.855Z,4.81
2023-03-04T06:48:59.496Z,4.90
2023-03-04T06:51:27.479Z,4.94
2023-03-04T06:53:55.324Z,4.98
2023-03-04T06:56:23.184Z,4.83
2023-03-04T06:58:52.432Z,4.80
2023-03-04T07:01:22.508Z,4.74
2023-03-04T07:03:53.662Z,4.77
2023-03-04T07:06:23.148Z,4.61
2023-03-04T07:08:51.038Z,4.83
2023-03-04T07:11:19.231Z,5.00
2023-03-04T07:13:47.567Z,5.05
2023-03-04T07:16:18.820Z,5.20
2023-03-04T07:18:47.519Z,5.26
2023-03-04T07:21:16.084Z,5.33
2023-03-04T07:23:44.645Z,5.33
2023-03-04T07:26:15.046Z,5.30
2023-03-04T07:28:43.414Z,5.22
2023-03-04T07:31:22.215Z,5.15
2023-03-04T07:33:50.702Z,5.04
2023-03-04T07:36:19.734Z,5.10
2023-03-04T07:38:49.057Z,5.21
2023-03-04T07:41:17.222Z,5.08
2023-03-04T07:43:44.996Z,5.10
2023-03-04T07:46:12.914Z,5.09
2023-03-04T07:48:41.962Z,5.18
2023-03-04T07:51:11.441Z,5.14
2023-03-04T07:53:44.207Z,5.09
2023-03-04T07:56:14.492Z,5.11
2023-03-04T07:58:42.256Z,5.09
2023-03-04T08:01:11.429Z,4.99
2023-03-04T08:03:39.458Z,5.02
2023-03-04T08:06:09.975Z,5.09
2023-03-04T08:08:38.691Z,5.08
2023-03-04T08:11:07.520Z,5.12
2023-03-04T08:13:36.240Z,5.07
2023-03-04T08:16:04.678Z,5.10
2023-03-04T08:18:32.380Z,5.13
2023-03-04T08:21:00.829Z,5.09
2023-03-04T08:23:30.065Z,5.23
2023-03-04T08:25:57.881Z,5.32
2023-03-04T08:28:26.398Z,5.30
2023-03-04T08:30:56.587Z,5.36
2023-03-04T08:33:26.491Z,5.35
2023-03-04T08:35:54.811Z,5.45
2023-03-04T08:38:22.456Z,5.47
2023-03-04T08:40:54.877Z,5.46
2023-03-04T08:43:22.986Z,5.44
2023-03-04T08:45:50.768Z,5.41
2023-03-04T08:48:18.649Z,5.18
2023-03-04T08:50:46.976Z,5.27
2023-03-04T08:53:15.715Z,5.34
2023-03-04T08:55:44.675Z,5.38
2023-03-04T08:58:14.082Z,5.40
2023-03-04T09:00:45.095Z,5.41
2023-03-04T09:03:13.395Z,5.43
2023-03-04T09:05:42.689Z,5.46
2023-03-04T09:08:10.489Z,5.50
2023-03-04T09:10:38.278Z,5.53
2023-03-04T09:13:06.331Z,5.48
2023-03-04T09:15:36.031Z,5.47
2023-03-04T09:18:03.910Z,5.43
2023-03-04T09:20:31.976Z,5.57
2023-03-04T09:22:59.632Z,5.64
2023-03-04T09:25:27.412Z,5.73
2023-03-04T09:27:57.757Z,5.76
2023-03-04T09:30:27.507Z,5.80
2023-03-04T09:32:57.590Z,5.86
2023-03-04T09:35:25.456Z,5.87
2023-03-04T09:37:53.628Z,5.83
2023-03-04T09:40:24.686Z,5.88
2023-03-04T09:42:55.877Z,5.84
2023-03-04T09:45:27.789Z,5.73
2023-03-04T09:47:57.778Z,5.79
2023-03-04T09:50:26.340Z,5.76
2023-03-04T09:53:07.625Z,5.75
2023-03-04T09:55:38.448Z,5.76
2023-03-04T09:58:13.356Z,5.72
2023-03-04T10:00:44.830Z,5.76
2023-03-04T10:03:19.286Z,5.79
2023-03-04T10:05:55.011Z,5.80
2023-03-04T10:08:38.058Z,5.84
2023-03-04T10:11:13.190Z,5.84
2023-03-04T10:13:49.260Z,5.91
2023-03-04T10:16:22.374Z,6.01
2023-03-04T10:18:57.779Z,6.05
2023-03-04T10:21:32.047Z,6.08
2023-03-04T10:24:02.670Z,6.05
2023-03-04T10:26:33.416Z,6.07
2023-03-04T10:29:03.029Z,6.05
2023-03-04T10:31:35.076Z,5.93
2023-03-04T10:34:04.315Z,5.98
2023-03-04T10:36:41.588Z,5.86
2023-03-04T10:39:12.660Z,5.85
2023-03-04T10:41:44.559Z,5.96
2023-03-04T10:44:18.231Z,6.17
2023-03-04T10:46:48.184Z,6.20
2023-03-04T10:49:20.028Z,6.22
2023-03-04T10:51:50.095Z,6.23
2023-03-04T10:54:25.297Z,6.26
2023-03-04T10:57:00.337Z,6.31
2023-03-04T10:59:35.392Z,6.30
2023-03-04T11:02:14.429Z,6.43
2023-03-04T11:04:45.885Z,6.48
2023-03-04T11:07:16.464Z,6.46
2023-03-04T11:09:45.896Z,6.38
2023-03-04T11:12:16.192Z,6.05
2023-03-04T11:14:49.116Z,5.97
2023-03-04T11:17:20.482Z,5.94
2023-03-04T11:19:55.337Z,6.03
2023-03-04T11:22:24.814Z,6.08
2023-03-04T11:24:59.290Z,6.14
2023-03-04T11:27:37.193Z,6.21
2023-03-04T11:30:19.885Z,6.35
2023-03-04T11:32:51.866Z,6.28
2023-03-04T11:35:26.633Z,6.39
2023-03-04T11:38:03.336Z,6.37
2023-03-04T11:40:37.114Z,6.48
2023-03-04T11:43:08.658Z,6.54
2023-03-04T11:46:07.892Z,6.60
2023-03-04T11:48:50.507Z,6.64
2023-03-04T11:51:25.026Z,6.61
2023-03-04T11:54:04.132Z,6.51
2023-03-04T11:56:35.821Z,6.39
2023-03-04T11:59:17.572Z,6.33
2023-03-04T12:01:50.821Z,6.36
2023-03-04T12:04:31.862Z,6.46
2023-03-04T12:07:12.989Z,6.53
2023-03-04T12:09:48.397Z,6.58
2023-03-04T12:12:28.118Z,6.47
2023-03-04T12:15:08.312Z,6.60
2023-03-04T12:18:02.476Z,6.65
2023-03-04T12:21:08.827Z,6.70
2023-03-04T12:24:11.246Z,6.74
2023-03-04T12:26:43.237Z,6.84
2023-03-04T12:29:20.238Z,6.90
2023-03-04T12:31:55.361Z,6.86
2023-03-04T12:34:39.125Z,6.82
2023-03-04T12:37:29.674Z,6.76
2023-03-04T12:40:30.979Z,6.72
2023-03-04T12:43:10.656Z,6.60
2023-03-04T12:45:45.670Z,6.57
2023-03-04T12:48:27.302Z,6.50
2023-03-04T12:51:05.925Z,6.41
2023-03-04T12:53:44.157Z,6.45
2023-03-04T12:56:24.346Z,6.45
2023-03-04T12:58:53.842Z,6.45
2023-03-04T13:01:30.556Z,6.46
2023-03-04T13:04:06.475Z,6.47
2023-03-04T13:06:45.292Z,6.37
2023-03-04T13:09:20.915Z,6.38
2023-03-04T13:12:04.950Z,6.42
2023-03-04T13:14:34.873Z,6.52
2023-03-04T13:17:28.551Z,6.49
2023-03-04T13:19:59.613Z,6.55
2023-03-04T13:22:35.619Z,6.58
2023-03-04T13:25:42.237Z,6.59
2023-03-04T13:28:20.706Z,6.58
2023-03-04T13:31:29.026Z,6.49
2023-03-04T13:34:04.921Z,6.47
2023-03-04T13:36:50.990Z,6.45
2023-03-04T13:39:30.989Z,6.49
2023-03-04T13:41:59.242Z,6.52
2023-03-04T13:44:58.131Z,6.48
2023-03-04T13:47:33.921Z,6.42
2023-03-04T13:50:31.843Z,6.36
2023-03-04T13:53:23.728Z,6.32
2023-03-04T13:56:31.337Z,6.33
2023-03-04T13:59:20.335Z,6.28
2023-03-04T14:02:03.656Z,6.25
2023-03-04T14:04:34.922Z,6.29
2023-03-04T14:07:20.137Z,6.40
2023-03-04T14:10:00.126Z,6.41
2023-03-04T14:12:30.588Z,6.43
2023-03-04T14:15:04.712Z,6.45
2023-03-04T14:17:37.393Z,6.47
2023-03-04T14:20:08.947Z,6.41
2023-03-04T14:22:40.918Z,6.32
2023-03-04T14:25:23.133Z,6.32
2023-03-04T14:27:51.898Z,6.35
2023-03-04T14:30:39.026Z,6.26
2023-03-04T14:33:16.081Z,6.17
2023-03-04T14:35:48.462Z,6.06
2023-03-04T14:38:22.291Z,6.04
2023-03-04T14:40:54.437Z,6.05
2023-03-04T14:43:24.189Z,6.07
2023-03-04T14:45:57.162Z,6.04
2023-03-04T14:48:28.987Z,6.12
2023-03-04T14:50:58.704Z,6.17
2023-03-04T14:53:28.043Z,6.20
2023-03-04T14:55:57.982Z,6.19
2023-03-04T14:58:28.024Z,6.24
2023-03-04T15:01:15.766Z,6.28
2023-03-04T15:03:56.705Z,6.11
2023-03-04T15:06:26.838Z,6.06
2023-03-04T15:09:01.635Z,6.10
2023-03-04T15:11:31.707Z,6.11
2023-03-04T15:14:01.387Z,6.15
2023-03-04T15:16:51.891Z,6.17
2023-03-04T15:19:28.536Z,6.21
2023-03-04T15:22:05.154Z,6.16
2023-03-04T15:24:33.988Z,6.07
2023-03-04T15:27:04.181Z,6.05
2023-03-04T15:29:34.462Z,6.06
2023-03-04T15:32:04.575Z,6.07
2023-03-04T15:34:33.630Z,6.09
2023-03-04T15:37:01.355Z,5.96
2023-03-04T15:39:31.637Z,5.91
2023-03-04T15:42:00.517Z,5.93
2023-03-04T15:44:28.231Z,5.97
2023-03-04T15:46:56.200Z,5.97
2023-03-04T15:49:24.180Z,5.94
2023-03-04T15:51:53.601Z,5.89
2023-03-04T15:54:32.292Z,5.95
2023-03-04T15:57:00.739Z,5.90
2023-03-04T15:59:30.971Z,5.89
2023-03-04T16:01:58.652Z,5.89
2023-03-04T16:04:29.014Z,5.91
2023-03-04T16:07:00.832Z,5.88
2023-03-04T16:09:28.491Z,5.89
2023-03-04T16:12:01.626Z,5.93
2023-03-04T16:14:29.374Z,5.87
2023-03-04T16:16:57.028Z,5.76
2023-03-04T16:19:27.239Z,5.71
2023-03-04T16:21:56.321Z,5.78
2023-03-04T16:24:27.470Z,5.67
2023-03-04T16:26:55.511Z,5.68
2023-03-04T16:29:23.325Z,5.76
2023-03-04T16:31:51.036Z,5.67
2023-03-04T16:34:18.693Z,5.61
2023-03-04T16:36:46.558Z,5.56
2023-03-04T16:39:21.266Z,5.56
2023-03-04T16:41:51.014Z,5.57
2023-03-04T16:44:18.924Z,5.59
2023-03-04T16:46:46.693Z,5.58
2023-03-04T16:49:14.536Z,5.60
2023-03-04T16:51:44.341Z,5.57
2023-03-04T16:54:17.752Z,5.60
2023-03-04T16:56:45.504Z,5.63
2023-03-04T16:59:17.488Z,5.62
2023-03-04T17:01:45.827Z,5.54
2023-03-04T17:04:13.566Z,5.54
2023-03-04T17:06:41.314Z,5.53
2023-03-04T17:09:10.100Z,5.53
2023-03-04T17:11:38.520Z,5.51
2023-03-04T17:14:06.541Z,5.52
2023-03-04T17:16:35.943Z,5.57
2023-03-04T17:19:03.707Z,5.48
2023-03-04T17:21:31.450Z,5.46
2023-03-04T17:23:59.913Z,5.47
2023-03-04T17:26:27.686Z,5.44
2023-03-04T17:28:56.863Z,5.43
2023-03-04T17:31:24.561Z,5.46
2023-03-04T17:33:56.674Z,5.50
2023-03-04T17:36:24.365Z,5.54
2023-03-04T17:38:52.030Z,5.55
2023-03-04T17:41:22.750Z,5.44
2023-03-04T17:43:54.556Z,5.43
2023-03-04T17:46:24.709Z,5.49
2023-03-04T17:48:56.077Z,5.51
2023-03-04T17:51:31.028Z,5.48
2023-03-04T17:54:01.113Z,5.39
2023-03-04T17:56:32.552Z,5.39
2023-03-04T17:59:02.288Z,5.45
2023-03-04T18:01:29.904Z,5.41
2023-03-04T18:03:59.559Z,5.41
2023-03-04T18:06:27.995Z,5.37
2023-03-04T18:08:56.019Z,5.32
2023-03-04T18:11:27.702Z,5.22
2023-03-04T18:13:58.464Z,5.12
2023-03-04T18:16:27.103Z,5.15
2023-03-04T18:19:01.103Z,5.05
2023-03-04T18:21:30.648Z,5.02
2023-03-04T18:23:59.304Z,4.98
2023-03-04T18:26:27.414Z,5.10
2023-03-04T18:28:58.352Z,5.03
2023-03-04T18:31:31.507Z,5.00
2023-03-04T18:34:02.146Z,5.08
2023-03-04T18:36:30.767Z,5.11
2023-03-04T18:38:59.656Z,5.18
2023-03-04T18:41:29.450Z,5.20
2023-03-04T18:43:57.284Z,5.19
2023-03-04T18:46:32.069Z,5.11
2023-03-04T18:49:04.523Z,5.17
2023-03-04T18:51:32.642Z,5.24
2023-03-04T18:54:01.993Z,5.11
2023-03-04T18:56:37.625Z,5.02
2023-03-04T18:59:08.412Z,5.06
2023-03-04T19:01:36.251Z,5.02
2023-03-04T19:04:05.999Z,4.94
2023-03-04T19:06:36.364Z,4.86
2023-03-04T19:09:06.535Z,4.84
2023-03-04T19:11:34.855Z,4.86
2023-03-04T19:14:06.049Z,4.89
2023-03-04T19:16:33.893Z,4.89
2023-03-04T19:19:01.815Z,4.86
2023-03-04T19:21:30.857Z,4.86
2023-03-04T19:23:58.686Z,4.81
2023-03-04T19:26:26.384Z,4.85
2023-03-04T19:28:54.153Z,4.90
2023-03-04T19:31:21.727Z,4.90
2023-03-04T19:33:49.755Z,4.92
2023-03-04T19:36:17.519Z,4.94
2023-03-04T19:38:54.821Z,4.89
2023-03-04T19:41:24.444Z,4.78
2023-03-04T19:43:52.429Z,4.79
2023-03-04T19:46:21.241Z,4.81
2023-03-04T19:48:50.238Z,4.86
2023-03-04T19:51:20.268Z,4.91
2023-03-04T19:53:50.676Z,4.95
2023-03-04T19:56:18.615Z,4.93
2023-03-04T19:58:48.191Z,4.84
2023-03-04T20:01:27.927Z,4.83
2023-03-04T20:03:56.370Z,4.84
2023-03-04T20:06:26.951Z,4.92
2023-03-04T20:08:57.496Z,4.87
2023-03-04T20:11:25.826Z,4.86
2023-03-04T20:13:54.006Z,4.91
2023-03-04T20:16:22.079Z,5.04
2023-03-04T20:18:49.857Z,5.02
2023-03-04T20:21:17.800Z,4.95
2023-03-04T20:23:45.574Z,4.97
2023-03-04T20:26:14.555Z,4.96
2023-03-04T20:28:42.279Z,4.87
2023-03-04T20:31:11.754Z,4.72
2023-03-04T20:33:39.560Z,4.80
2023-03-04T20:36:07.523Z,4.70
2023-03-04T20:38:35.268Z,4.82
2023-03-04T20:41:02.921Z,4.87
2023-03-04T20:43:32.096Z,4.86
2023-03-04T20:46:38.139Z,4.75
2023-03-04T20:49:09.168Z,4.70
2023-03-04T20:51:37.434Z,4.71
2023-03-04T20:54:06.236Z,4.47
2023-03-04T20:56:34.713Z,4.43
2023-03-04T20:59:05.159Z,4.58
2023-03-04T21:01:34.202Z,4.58
2023-03-04T21:04:02.556Z,4.58
2023-03-04T21:06:30.768Z,4.62
2023-03-04T21:09:02.110Z,4.68
2023-03-04T21:11:30.034Z,4.73
2023-03-04T21:13:57.931Z,4.75
2023-03-04T21:16:28.959Z,4.65
2023-03-04T21:18:58.370Z,4.63
2023-03-04T21:21:31.037Z,4.63
2023-03-04T21:23:59.955Z,4.54
2023-03-04T21:26:27.725Z,4.55
2023-03-04T21:28:55.766Z,4.62
2023-03-04T21:31:25.553Z,4.62
2023-03-04T21:33:54.918Z,4.60
2023-03-04T21:36:23.998Z,4.62
2023-03-04T21:38:52.345Z,4.63
2023-03-04T21:41:22.338Z,4.41
2023-03-04T21:43:50.868Z,4.54
2023-03-04T21:46:23.289Z,4.36
2023-03-04T21:48:51.620Z,4.31
2023-03-04T21:51:19.447Z,4.42
2023-03-04T21:53:48.586Z,4.55
2023-03-04T21:56:17.783Z,4.43
2023-03-04T21:58:45.867Z,4.43
2023-03-04T22:01:16.213Z,4.44
2023-03-04T22:03:44.178Z,4.40
2023-03-04T22:06:13.351Z,4.49
2023-03-04T22:08:43.507Z,4.43
2023-03-04T22:11:12.855Z,4.48
2023-03-04T22:13:41.208Z,4.32
2023-03-04T22:16:10.067Z,4.24
2023-03-04T22:18:40.527Z,4.26
2023-03-04T22:21:11.601Z,4.28
2023-03-04T22:23:39.672Z,4.32
2023-03-04T22:26:09.541Z,4.31
2023-03-04T22:28:38.716Z,4.31
2023-03-04T22:31:14.994Z,4.35
2023-03-04T22:33:43.880Z,4.43
2023-03-04T22:36:11.983Z,4.43
2023-03-04T22:38:40.165Z,4.26
2023-03-04T22:41:14.204Z,4.28
2023-03-04T22:43:43.333Z,4.29
2023-03-04T22:46:14.913Z,4.22
2023-03-04T22:48:43.096Z,4.30
2023-03-04T22:51:11.792Z,4.34
2023-03-04T22:53:40.638Z,4.16
2023-03-04T22:56:08.784Z,4.17
2023-03-04T22:58:36.866Z,4.16
2023-03-04T23:01:06.127Z,4.22
2023-03-04T23:03:34.328Z,4.17
2023-03-04T23:06:03.286Z,4.10
2023-03-04T23:08:33.398Z,4.21
2023-03-04T23:11:01.382Z,4.26
2023-03-04T23:13:32.059Z,4.28
2023-03-04T23:16:02.519Z,4.33
2023-03-04T23:18:31.748Z,4.37
2023-03-04T23:20:59.400Z,4.38
2023-03-04T23:23:27.131Z,4.31
2023-03-04T23:25:54.938Z,4.25
2023-03-04T23:28:22.606Z,4.26
2023-03-04T23:30:50.457Z,4.32
2023-03-04T23:33:18.126Z,4.24
2023-03-04T23:35:47.455Z,4.20
2023-03-04T23:38:15.236Z,4.16
2023-03-04T23:40:43.165Z,4.11
2023-03-04T23:43:13.184Z,4.08
2023-03-04T23:45:40.922Z,4.01
2023-03-04T23:48:08.613Z,4.05
2023-03-04T23:50:38.062Z,4.10
2023-03-04T23:53:07.005Z,4.03
2023-03-04T23:55:34.755Z,4.02
2023-03-04T23:58:02.440Z,3.80
